Time;durP1;ratioP1;P1;durP2;ratioP2;P2;SDS_P1;SDS_P2;PMS_P1;PMS_P2;Temp;Humidity;BMP_temperature;BMP_pressure;BME280_temperature;BME280_humidity;BME280_pressure;Samples;Min_cycle;Max_cycle;Signal;HPM_P1;HPM_P2
2023/09/30 00:02:01;;;;;;;18.50;5.57;;;;;;;;;;5105155;28;20047;-60
2023/09/30 00:04:28;;;;;;;19.02;5.30;;;;;;;;;;5103564;28;20039;-61
2023/09/30 00:06:54;;;;;;;19.60;5.38;;;;;;;;;;5105577;28;20023;-60
2023/09/30 00:09:20;;;;;;;20.70;5.88;;;;;;;;;;5103397;28;20491;-61
2023/09/30 00:11:46;;;;;;;19.50;5.65;;;;;;;;;;5101171;28;20047;-60
2023/09/30 00:14:12;;;;;;;22.52;5.50;;;;;;;;;;5103867;28;20052;-60
2023/09/30 00:16:38;;;;;;;19.42;5.22;;;;;;;;;;5105097;28;20054;-61
2023/09/30 00:19:05;;;;;;;17.15;4.53;;;;;;;;;;5101492;28;20059;-60
2023/09/30 00:21:31;;;;;;;17.27;4.50;;;;;;;;;;5100529;28;20051;-61
2023/09/30 00:23:57;;;;;;;15.52;5.18;;;;;;;;;;5105610;28;20044;-60
2023/09/30 00:26:23;;;;;;;15.75;4.72;;;;;;;;;;5106178;28;20034;-61
2023/09/30 00:28:50;;;;;;;17.85;4.70;;;;;;;;;;5092466;28;20043;-60
2023/09/30 00:31:16;;;;;;;17.65;4.28;;;;;;;;;;5090857;28;20039;-61
2023/09/30 00:33:45;;;;;;;18.33;4.50;;;;;;;;;;5091668;28;20490;-60
2023/09/30 00:36:12;;;;;;;17.25;4.95;;;;;;;;;;5073234;28;20036;-60
2023/09/30 00:38:40;;;;;;;21.88;5.65;;;;;;;;;;5110164;28;20036;-60
2023/09/30 00:41:07;;;;;;;22.27;5.60;;;;;;;;;;5109075;28;20051;-60
2023/09/30 00:43:33;;;;;;;19.08;4.90;;;;;;;;;;5108096;28;20043;-60
2023/09/30 00:46:23;;;;;;;19.48;5.07;;;;;;;;;;5107756;28;20403;-60
2023/09/30 00:48:50;;;;;;;16.75;4.68;;;;;;;;;;5105294;28;20047;-60
2023/09/30 00:51:16;;;;;;;24.15;6.32;;;;;;;;;;5091406;28;20353;-60
2023/09/30 00:53:42;;;;;;;20.33;5.47;;;;;;;;;;5087966;28;20044;-60
2023/09/30 00:56:10;;;;;;;19.67;5.70;;;;;;;;;;5107103;28;20034;-60
2023/09/30 00:58:38;;;;;;;23.20;6.15;;;;;;;;;;5091773;28;20039;-60
2023/09/30 01:01:05;;;;;;;21.92;5.32;;;;;;;;;;5084839;28;20043;-60
2023/09/30 01:03:31;;;;;;;18.10;5.32;;;;;;;;;;5088608;28;20027;-60
2023/09/30 01:05:57;;;;;;;18.40;4.95;;;;;;;;;;5088278;28;20028;-59
2023/09/30 01:08:23;;;;;;;22.05;5.13;;;;;;;;;;5105273;28;20051;-60
2023/09/30 01:10:50;;;;;;;20.90;5.60;;;;;;;;;;5104617;28;20043;-60
2023/09/30 01:13:17;;;;;;;19.65;5.93;;;;;;;;;;5107997;28;20541;-61
2023/09/30 01:15:43;;;;;;;21.40;5.65;;;;;;;;;;5110015;28;20023;-60
2023/09/30 01:18:09;;;;;;;20.52;4.97;;;;;;;;;;5109914;28;20052;-60
2023/09/30 01:20:36;;;;;;;22.80;5.20;;;;;;;;;;5110097;28;20030;-60
2023/09/30 01:23:03;;;;;;;19.52;4.90;;;;;;;;;;5087788;28;20055;-59
2023/09/30 01:25:30;;;;;;;25.90;6.28;;;;;;;;;;5109599;28;20051;-60
2023/09/30 01:27:59;;;;;;;22.58;5.57;;;;;;;;;;5093121;28;20031;-60
2023/09/30 01:30:26;;;;;;;20.60;6.07;;;;;;;;;;5090922;28;20047;-60
2023/09/30 01:32:53;;;;;;;22.33;5.55;;;;;;;;;;5110541;28;20031;-60
2023/09/30 01:35:19;;;;;;;22.08;5.65;;;;;;;;;;5107297;28;20044;-60
2023/09/30 01:37:45;;;;;;;21.40;5.57;;;;;;;;;;5109785;28;20054;-60
2023/09/30 01:40:11;;;;;;;21.23;5.10;;;;;;;;;;5107952;28;20047;-59
2023/09/30 01:42:38;;;;;;;22.27;6.05;;;;;;;;;;5107742;28;20047;-58
2023/09/30 01:45:05;;;;;;;19.23;5.05;;;;;;;;;;5087293;28;20052;-60
2023/09/30 01:47:31;;;;;;;21.67;5.30;;;;;;;;;;5089777;28;20043;-61
2023/09/30 01:49:59;;;;;;;23.35;5.28;;;;;;;;;;5108610;28;20059;-60
2023/09/30 01:52:25;;;;;;;19.92;5.32;;;;;;;;;;5108605;28;20036;-60
2023/09/30 01:54:51;;;;;;;18.52;4.30;;;;;;;;;;5105947;28;20399;-60
2023/09/30 01:57:17;;;;;;;21.42;5.40;;;;;;;;;;5107012;28;20063;-60
2023/09/30 01:59:44;;;;;;;20.35;5.78;;;;;;;;;;5090218;28;20028;-59
2023/09/30 02:02:10;;;;;;;21.77;5.10;;;;;;;;;;5108490;28;20054;-60
2023/09/30 02:04:36;;;;;;;21.02;5.03;;;;;;;;;;5104379;28;20042;-60
2023/09/30 02:07:02;;;;;;;19.85;5.13;;;;;;;;;;5090936;28;20039;-60
2023/09/30 02:09:28;;;;;;;21.85;5.05;;;;;;;;;;5107774;28;20039;-60
2023/09/30 02:11:55;;;;;;;23.13;4.97;;;;;;;;;;5108306;28;20042;-60
2023/09/30 02:14:21;;;;;;;19.33;5.50;;;;;;;;;;5108375;28;20039;-60
2023/09/30 02:16:47;;;;;;;23.45;5.75;;;;;;;;;;5095524;28;20043;-61
2023/09/30 02:19:13;;;;;;;26.45;5.93;;;;;;;;;;5072553;28;20039;-60
2023/09/30 02:21:39;;;;;;;25.00;5.82;;;;;;;;;;5090672;28;20034;-60
2023/09/30 02:24:06;;;;;;;28.00;7.47;;;;;;;;;;5101425;28;20043;-60
2023/09/30 02:26:32;;;;;;;24.30;6.78;;;;;;;;;;5109126;28;20024;-60
2023/09/30 02:28:59;;;;;;;20.58;5.47;;;;;;;;;;5108745;28;20051;-60
2023/09/30 02:31:25;;;;;;;25.50;6.40;;;;;;;;;;5087279;28;20028;-59
2023/09/30 02:33:51;;;;;;;23.00;6.32;;;;;;;;;;5106131;28;20039;-60
2023/09/30 02:36:17;;;;;;;24.10;5.07;;;;;;;;;;5106233;28;20035;-61
2023/09/30 02:38:43;;;;;;;23.05;5.10;;;;;;;;;;5087870;28;20031;-60
2023/09/30 02:41:09;;;;;;;23.65;5.57;;;;;;;;;;5073100;28;20428;-60
2023/09/30 02:43:36;;;;;;;30.77;6.20;;;;;;;;;;5106334;28;20055;-61
2023/09/30 02:46:02;;;;;;;28.48;5.97;;;;;;;;;;5105480;28;20043;-60
2023/09/30 02:48:29;;;;;;;32.20;6.10;;;;;;;;;;5106930;28;20055;-59
2023/09/30 02:50:55;;;;;;;26.77;6.38;;;;;;;;;;5107715;28;20039;-59
2023/09/30 02:53:22;;;;;;;29.17;6.60;;;;;;;;;;5106186;28;20482;-60
2023/09/30 02:55:49;;;;;;;23.05;5.63;;;;;;;;;;5105481;28;20024;-60
2023/09/30 02:58:15;;;;;;;23.52;4.93;;;;;;;;;;5088445;28;20062;-59
2023/09/30 03:00:41;;;;;;;26.40;5.75;;;;;;;;;;5090855;28;20479;-60
2023/09/30 03:03:08;;;;;;;22.20;5.78;;;;;;;;;;5103094;28;20035;-60
2023/09/30 03:05:35;;;;;;;22.88;5.43;;;;;;;;;;5088896;28;20109;-59
2023/09/30 03:08:01;;;;;;;25.20;6.53;;;;;;;;;;5106909;28;20059;-60
2023/09/30 03:10:28;;;;;;;23.35;5.47;;;;;;;;;;5095494;28;20043;-60
2023/09/30 03:12:55;;;;;;;23.35;6.00;;;;;;;;;;5094089;28;20036;-59
2023/09/30 03:15:22;;;;;;;17.40;5.10;;;;;;;;;;5106037;28;20425;-60
2023/09/30 03:17:48;;;;;;;25.27;6.07;;;;;;;;;;5103092;28;20042;-60
2023/09/30 03:20:19;;;;;;;28.70;6.03;;;;;;;;;;5084998;28;20058;-59
2023/09/30 03:22:48;;;;;;;26.25;5.82;;;;;;;;;;5108573;28;20032;-60
2023/09/30 03:25:17;;;;;;;24.67;6.38;;;;;;;;;;5071287;28;20438;-60
2023/09/30 03:27:46;;;;;;;21.42;5.28;;;;;;;;;;5108326;28;20035;-59
2023/09/30 03:30:16;;;;;;;27.67;5.88;;;;;;;;;;5107707;28;20039;-60
2023/09/30 03:32:43;;;;;;;23.85;5.70;;;;;;;;;;5103244;28;20410;-60
2023/09/30 03:35:16;;;;;;;27.02;5.57;;;;;;;;;;5104078;28;20062;-60
2023/09/30 03:37:44;;;;;;;24.63;6.13;;;;;;;;;;5082981;28;20035;-60
2023/09/30 03:40:13;;;;;;;25.77;6.57;;;;;;;;;;5104151;28;20046;-60
2023/09/30 03:42:42;;;;;;;22.77;5.25;;;;;;;;;;5103111;28;20031;-60
2023/09/30 03:45:09;;;;;;;25.23;5.45;;;;;;;;;;5085214;28;20043;-60
2023/09/30 03:47:36;;;;;;;27.73;6.90;;;;;;;;;;5106559;28;20059;-59
2023/09/30 03:50:04;;;;;;;22.20;6.03;;;;;;;;;;5107089;28;20043;-59
2023/09/30 03:52:34;;;;;;;26.65;6.32;;;;;;;;;;5105444;28;20046;-60
2023/09/30 03:55:04;;;;;;;26.50;6.30;;;;;;;;;;5101637;28;20052;-60
2023/09/30 03:57:33;;;;;;;23.77;6.38;;;;;;;;;;5104938;28;20051;-60
2023/09/30 04:00:00;;;;;;;35.22;7.88;;;;;;;;;;5088502;28;20039;-60
2023/09/30 04:02:27;;;;;;;28.40;6.72;;;;;;;;;;5103579;28;20047;-60
2023/09/30 04:04:55;;;;;;;28.45;6.32;;;;;;;;;;5106716;28;20442;-60
2023/09/30 04:07:24;;;;;;;29.90;6.63;;;;;;;;;;5090210;28;20403;-60
2023/09/30 04:09:56;;;;;;;23.48;6.22;;;;;;;;;;5090066;28;20407;-60
2023/09/30 04:12:25;;;;;;;28.23;6.40;;;;;;;;;;5108881;28;20047;-60
2023/09/30 04:14:52;;;;;;;;;;;;;;;;;;5106046;28;20035;-60
2023/09/30 04:17:18;;;;;;;32.35;6.93;;;;;;;;;;5108137;27;19916;-59
2023/09/30 04:19:45;;;;;;;30.33;6.85;;;;;;;;;;5110301;28;20031;-60
2023/09/30 04:22:12;;;;;;;26.08;7.05;;;;;;;;;;5109478;28;20054;-60
2023/09/30 04:24:39;;;;;;;22.85;5.97;;;;;;;;;;5109558;28;20039;-60
2023/09/30 04:27:07;;;;;;;27.45;6.15;;;;;;;;;;5111133;28;20043;-60
2023/09/30 04:29:34;;;;;;;34.05;6.50;;;;;;;;;;5092680;28;20031;-60
2023/09/30 04:32:00;;;;;;;24.02;5.78;;;;;;;;;;5089090;28;20055;-59
2023/09/30 04:34:27;;;;;;;28.23;6.35;;;;;;;;;;5106151;28;20040;-60
2023/09/30 04:36:53;;;;;;;29.33;6.68;;;;;;;;;;5105996;28;20060;-60
2023/09/30 04:39:20;;;;;;;30.48;6.70;;;;;;;;;;5111327;28;20552;-60
2023/09/30 04:41:46;;;;;;;22.88;5.80;;;;;;;;;;5108855;28;20135;-60
2023/09/30 04:44:13;;;;;;;30.55;5.97;;;;;;;;;;5108594;28;20036;-60
2023/09/30 04:46:40;;;;;;;26.08;5.90;;;;;;;;;;5109043;28;20024;-60
2023/09/30 04:49:08;;;;;;;31.17;6.78;;;;;;;;;;5109848;28;20039;-60
2023/09/30 04:51:34;;;;;;;28.73;6.68;;;;;;;;;;5090554;28;20044;-61
2023/09/30 04:54:01;;;;;;;19.35;6.40;;;;;;;;;;5106832;28;20494;-61
2023/09/30 04:56:28;;;;;;;23.52;5.88;;;;;;;;;;5097112;28;20028;-60
2023/09/30 04:58:54;;;;;;;25.25;6.55;;;;;;;;;;5111558;28;20410;-60
2023/09/30 05:01:20;;;;;;;21.15;6.40;;;;;;;;;;5108649;28;20032;-60
2023/09/30 05:03:49;;;;;;;20.38;5.47;;;;;;;;;;5091211;28;20031;-61
2023/09/30 05:06:15;;;;;;;27.33;6.00;;;;;;;;;;5109834;28;20027;-59
2023/09/30 05:08:41;;;;;;;26.45;6.55;;;;;;;;;;5104782;28;20043;-59
2023/09/30 05:11:07;;;;;;;29.38;6.57;;;;;;;;;;5110646;28;20046;-59
2023/09/30 05:13:34;;;;;;;31.20;7.18;;;;;;;;;;5105507;28;20403;-59
2023/09/30 05:16:00;;;;;;;25.00;5.95;;;;;;;;;;5107849;28;20039;-60
2023/09/30 05:18:26;;;;;;;26.38;6.65;;;;;;;;;;5108453;28;20065;-59
2023/09/30 05:20:52;;;;;;;27.02;6.53;;;;;;;;;;5110290;28;20043;-59
2023/09/30 05:23:19;;;;;;;24.90;6.57;;;;;;;;;;5107514;28;20059;-59
2023/09/30 05:25:45;;;;;;;24.52;6.57;;;;;;;;;;5109985;28;20055;-59
2023/09/30 05:28:13;;;;;;;28.60;6.18;;;;;;;;;;5109713;28;20406;-58
2023/09/30 05:30:40;;;;;;;34.40;7.22;;;;;;;;;;5107385;28;20059;-59
2023/09/30 05:33:06;;;;;;;26.25;6.25;;;;;;;;;;5092026;28;20040;-59
2023/09/30 05:35:33;;;;;;;27.50;6.90;;;;;;;;;;5106958;28;20047;-58
2023/09/30 05:38:00;;;;;;;27.55;6.18;;;;;;;;;;5108869;28;20055;-60
2023/09/30 05:40:26;;;;;;;35.58;8.18;;;;;;;;;;5106320;28;20494;-60
2023/09/30 05:42:53;;;;;;;23.52;6.95;;;;;;;;;;5106671;28;20035;-60
2023/09/30 05:45:20;;;;;;;27.17;6.82;;;;;;;;;;5093636;28;20043;-60
2023/09/30 05:47:46;;;;;;;19.90;6.25;;;;;;;;;;5087139;28;20051;-60
2023/09/30 05:50:15;;;;;;;28.17;8.25;;;;;;;;;;5083013;28;20074;-60
2023/09/30 05:52:44;;;;;;;22.52;6.43;;;;;;;;;;5105066;28;20405;-60
2023/09/30 05:55:10;;;;;;;20.33;6.35;;;;;;;;;;5106546;28;20039;-60
2023/09/30 05:57:36;;;;;;;20.10;7.10;;;;;;;;;;5107712;28;20047;-60
2023/09/30 06:00:46;;;;;;;20.77;6.93;;;;;;;;;;5106993;28;20051;-60
2023/09/30 06:02:53;;;;;;;16.55;6.68;;;;;;;;;;5099279;28;20044;-60
2023/09/30 06:05:19;;;;;;;23.85;6.18;;;;;;;;;;5090702;28;20499;-60
2023/09/30 06:07:46;;;;;;;14.65;6.35;;;;;;;;;;5105241;28;20031;-60
2023/09/30 06:10:15;;;;;;;19.63;5.72;;;;;;;;;;5088403;28;20039;-61
2023/09/30 06:12:41;;;;;;;15.40;5.60;;;;;;;;;;5106540;28;20054;-60
2023/09/30 06:15:08;;;;;;;15.65;6.55;;;;;;;;;;5104997;28;20503;-60
2023/09/30 06:17:34;;;;;;;17.10;5.93;;;;;;;;;;5107158;28;20024;-60
2023/09/30 06:20:09;;;;;;;20.88;6.47;;;;;;;;;;5110033;28;20406;-61
2023/09/30 06:22:35;;;;;;;20.63;6.13;;;;;;;;;;5106557;28;20055;-60
2023/09/30 06:25:03;;;;;;;15.30;5.55;;;;;;;;;;5106854;28;20038;-60
2023/09/30 06:27:29;;;;;;;17.05;5.20;;;;;;;;;;5107127;28;20051;-60
2023/09/30 06:29:56;;;;;;;12.77;5.15;;;;;;;;;;5104358;28;20035;-60
2023/09/30 06:32:22;;;;;;;9.57;4.75;;;;;;;;;;5105665;28;20054;-60
2023/09/30 06:34:48;;;;;;;14.27;5.43;;;;;;;;;;5105708;28;20051;-60
2023/09/30 06:37:15;;;;;;;12.50;4.50;;;;;;;;;;5106184;28;20047;-59
2023/09/30 06:39:41;;;;;;;12.43;3.67;;;;;;;;;;5106519;28;20023;-59
2023/09/30 06:42:07;;;;;;;11.13;4.00;;;;;;;;;;5106008;28;20521;-59
2023/09/30 06:44:33;;;;;;;14.48;4.35;;;;;;;;;;5105915;28;20031;-59
2023/09/30 06:47:00;;;;;;;10.02;4.30;;;;;;;;;;5107420;28;20430;-58
2023/09/30 06:49:26;;;;;;;14.68;4.60;;;;;;;;;;5107472;28;20430;-59
2023/09/30 06:51:52;;;;;;;10.20;3.90;;;;;;;;;;5105742;28;20028;-60
2023/09/30 06:54:18;;;;;;;14.85;4.95;;;;;;;;;;5106323;28;20031;-58
2023/09/30 06:56:44;;;;;;;10.63;3.75;;;;;;;;;;5078789;28;20030;-58
2023/09/30 06:59:10;;;;;;;9.45;4.10;;;;;;;;;;5107086;28;20046;-59
2023/09/30 07:01:37;;;;;;;9.20;4.28;;;;;;;;;;5106118;28;20032;-58
2023/09/30 07:04:03;;;;;;;7.88;3.67;;;;;;;;;;5102577;28;20032;-58
2023/09/30 07:06:29;;;;;;;9.90;4.38;;;;;;;;;;5089256;28;20051;-59
2023/09/30 07:08:55;;;;;;;11.07;4.05;;;;;;;;;;5108074;28;20027;-59
2023/09/30 07:11:29;;;;;;;8.82;3.80;;;;;;;;;;5099032;28;20066;-58
2023/09/30 07:13:56;;;;;;;7.70;3.50;;;;;;;;;;5105918;28;20046;-58
2023/09/30 07:16:22;;;;;;;9.90;4.20;;;;;;;;;;5105869;28;20035;-58
2023/09/30 07:18:48;;;;;;;9.77;3.58;;;;;;;;;;5102601;28;20035;-58
2023/09/30 07:21:15;;;;;;;8.65;3.72;;;;;;;;;;5106984;28;20035;-58
2023/09/30 07:23:41;;;;;;;7.47;3.38;;;;;;;;;;5105354;28;20043;-58
2023/09/30 07:26:07;;;;;;;10.18;3.90;;;;;;;;;;5106345;28;20039;-58
2023/09/30 07:28:34;;;;;;;9.15;3.33;;;;;;;;;;5105734;28;20031;-58
2023/09/30 07:31:00;;;;;;;7.65;3.53;;;;;;;;;;5104113;28;20047;-59
2023/09/30 07:33:26;;;;;;;12.02;3.67;;;;;;;;;;5102674;28;20039;-59
2023/09/30 07:35:52;;;;;;;8.18;3.80;;;;;;;;;;5106140;28;20035;-59
2023/09/30 07:38:18;;;;;;;7.72;3.28;;;;;;;;;;5105154;28;20043;-58
2023/09/30 07:40:44;;;;;;;10.52;4.25;;;;;;;;;;5104181;28;20042;-59
2023/09/30 07:43:12;;;;;;;9.85;3.90;;;;;;;;;;5105515;28;20051;-59
2023/09/30 07:45:39;;;;;;;6.43;3.55;;;;;;;;;;5103665;28;20080;-58
2023/09/30 07:48:09;;;;;;;7.68;3.53;;;;;;;;;;5105111;28;20048;-58
2023/09/30 07:50:36;;;;;;;9.57;3.85;;;;;;;;;;5101065;28;20055;-58
2023/09/30 07:53:02;;;;;;;9.30;3.40;;;;;;;;;;5103146;28;20048;-58
2023/09/30 07:55:28;;;;;;;8.15;3.13;;;;;;;;;;5086621;28;20039;-59
2023/09/30 07:57:57;;;;;;;13.38;3.10;;;;;;;;;;5103180;28;20058;-59
2023/09/30 08:00:23;;;;;;;7.38;3.10;;;;;;;;;;5105925;28;20023;-58
2023/09/30 08:02:50;;;;;;;7.45;3.25;;;;;;;;;;5103399;28;20040;-57
2023/09/30 08:05:16;;;;;;;8.05;3.42;;;;;;;;;;5102206;28;20521;-60
2023/09/30 08:07:43;;;;;;;8.52;3.42;;;;;;;;;;5106025;28;20030;-60
2023/09/30 08:10:13;;;;;;;9.02;4.10;;;;;;;;;;5105864;28;20036;-59
2023/09/30 08:12:40;;;;;;;9.07;4.35;;;;;;;;;;5104843;28;20031;-60
2023/09/30 08:15:08;;;;;;;11.20;3.95;;;;;;;;;;5087122;28;20055;-60
2023/09/30 08:17:34;;;;;;;9.60;4.15;;;;;;;;;;5089722;28;20028;-62
2023/09/30 08:20:00;;;;;;;11.38;3.72;;;;;;;;;;5107778;28;20040;-60
2023/09/30 08:22:27;;;;;;;9.32;4.15;;;;;;;;;;5105417;28;20402;-60
2023/09/30 08:24:54;;;;;;;8.23;4.10;;;;;;;;;;5105065;28;20051;-61
2023/09/30 08:27:20;;;;;;;8.35;4.18;;;;;;;;;;5106579;28;20035;-59
2023/09/30 08:29:46;;;;;;;8.63;4.10;;;;;;;;;;5090372;28;20031;-60
2023/09/30 08:32:13;;;;;;;8.70;3.85;;;;;;;;;;5104566;28;20511;-61
2023/09/30 08:34:40;;;;;;;9.00;4.28;;;;;;;;;;5087010;28;20035;-60
2023/09/30 08:37:06;;;;;;;6.93;3.65;;;;;;;;;;5105807;28;20371;-60
2023/09/30 08:39:32;;;;;;;10.50;4.00;;;;;;;;;;5105477;28;20027;-60
2023/09/30 08:42:01;;;;;;;7.95;3.90;;;;;;;;;;5105873;28;20032;-60
2023/09/30 08:44:29;;;;;;;9.13;3.63;;;;;;;;;;5104936;28;20031;-59
2023/09/30 08:46:56;;;;;;;10.02;4.20;;;;;;;;;;5104050;28;20031;-59
2023/09/30 08:49:26;;;;;;;;;;;;;;;;;;5108922;28;20035;-60
2023/09/30 08:51:54;;;;;;;7.80;3.72;;;;;;;;;;5105590;28;19916;-61
2023/09/30 08:54:21;;;;;;;8.07;3.42;;;;;;;;;;5110892;28;20037;-59
2023/09/30 08:56:49;;;;;;;9.27;3.40;;;;;;;;;;5089623;28;20046;-59
2023/09/30 08:59:16;;;;;;;7.72;3.65;;;;;;;;;;5109795;28;20537;-60
2023/09/30 09:01:42;;;;;;;7.10;3.55;;;;;;;;;;5106401;28;20044;-60
2023/09/30 09:04:08;;;;;;;8.55;3.50;;;;;;;;;;5107303;28;20039;-60
2023/09/30 09:06:34;;;;;;;6.93;3.30;;;;;;;;;;5108328;28;20032;-60
2023/09/30 09:09:17;;;;;;;7.50;3.75;;;;;;;;;;5091232;28;20047;-60
2023/09/30 09:11:46;;;;;;;8.18;3.55;;;;;;;;;;5105648;28;20046;-59
2023/09/30 09:14:12;;;;;;;9.00;3.97;;;;;;;;;;5109483;28;20058;-61
2023/09/30 09:16:52;;;;;;;10.70;4.55;;;;;;;;;;5110037;28;20379;-60
2023/09/30 09:19:20;;;;;;;9.07;4.22;;;;;;;;;;5110010;28;20043;-60
2023/09/30 09:21:55;;;;;;;6.38;3.38;;;;;;;;;;5108163;28;20039;-60
2023/09/30 09:24:35;;;;;;;9.15;3.80;;;;;;;;;;5107842;28;20058;-61
2023/09/30 09:27:08;;;;;;;8.10;4.13;;;;;;;;;;5105341;28;20419;-60
2023/09/30 09:29:36;;;;;;;6.97;3.95;;;;;;;;;;5091601;28;20035;-59
2023/09/30 09:32:08;;;;;;;6.65;4.13;;;;;;;;;;5090030;28;20058;-60
2023/09/30 09:34:35;;;;;;;8.27;3.70;;;;;;;;;;5107337;28;20039;-59
2023/09/30 09:37:13;;;;;;;7.60;3.65;;;;;;;;;;5106280;28;20048;-60
2023/09/30 09:39:40;;;;;;;7.40;3.70;;;;;;;;;;5088136;28;20027;-60
2023/09/30 09:42:06;;;;;;;9.15;3.63;;;;;;;;;;5108054;28;20055;-59
2023/09/30 09:44:33;;;;;;;9.27;3.60;;;;;;;;;;5106039;28;20410;-60
2023/09/30 09:47:03;;;;;;;7.25;3.90;;;;;;;;;;5090115;28;20070;-60
2023/09/30 09:49:31;;;;;;;8.85;4.03;;;;;;;;;;5105627;28;20031;-59
2023/09/30 09:51:58;;;;;;;8.18;3.40;;;;;;;;;;5091565;28;20518;-59
2023/09/30 09:54:25;;;;;;;6.30;3.28;;;;;;;;;;5106990;28;20051;-60
2023/09/30 09:56:54;;;;;;;7.22;3.53;;;;;;;;;;5103503;28;20043;-60
2023/09/30 09:59:23;;;;;;;6.50;3.42;;;;;;;;;;5103945;28;20043;-60
2023/09/30 10:01:49;;;;;;;;;;;;;;;;;;5103583;28;20387;-60
2023/09/30 10:04:16;;;;;;;10.48;4.25;;;;;;;;;;5107525;28;20010;-60
2023/09/30 10:06:48;;;;;;;8.52;3.70;;;;;;;;;;5105221;28;20055;-59
2023/09/30 10:09:17;;;;;;;8.73;4.32;;;;;;;;;;5090158;28;20050;-60
2023/09/30 10:11:43;;;;;;;7.43;3.95;;;;;;;;;;5107406;28;20051;-60
2023/09/30 10:14:30;;;;;;;9.23;3.88;;;;;;;;;;5106146;28;20043;-61
2023/09/30 10:16:56;;;;;;;11.32;4.65;;;;;;;;;;5106564;28;20101;-61
2023/09/30 10:19:22;;;;;;;11.98;4.60;;;;;;;;;;5109143;28;20050;-60
2023/09/30 10:22:20;;;;;;;8.00;4.47;;;;;;;;;;5090240;28;20031;-60
2023/09/30 10:24:47;;;;;;;9.10;3.75;;;;;;;;;;5105520;28;20031;-59
2023/09/30 10:27:31;;;;;;;9.43;4.68;;;;;;;;;;5089726;28;20526;-60
2023/09/30 10:30:10;;;;;;;8.05;3.83;;;;;;;;;;5105868;28;20042;-58
2023/09/30 10:32:51;;;;;;;11.10;4.72;;;;;;;;;;5104149;28;20047;-58
2023/09/30 10:35:18;;;;;;;11.02;4.78;;;;;;;;;;5106350;28;20553;-57
2023/09/30 10:37:45;;;;;;;8.90;4.30;;;;;;;;;;5104845;28;20414;-58
2023/09/30 10:40:27;;;;;;;20.30;7.72;;;;;;;;;;5091487;28;20046;-58
2023/09/30 10:42:55;;;;;;;28.83;13.88;;;;;;;;;;5105800;28;20444;-58
2023/09/30 10:45:46;;;;;;;27.85;12.02;;;;;;;;;;5106107;28;20043;-59
2023/09/30 10:48:25;;;;;;;21.65;9.52;;;;;;;;;;5107696;28;20046;-59
2023/09/30 10:50:54;;;;;;;22.20;9.45;;;;;;;;;;5103669;28;20406;-58
2023/09/30 10:53:20;;;;;;;25.90;11.75;;;;;;;;;;5107216;28;20063;-59
2023/09/30 10:55:54;;;;;;;16.13;6.20;;;;;;;;;;5087423;28;20035;-57
2023/09/30 10:58:20;;;;;;;16.70;6.20;;;;;;;;;;5102770;28;20438;-57
2023/09/30 11:00:55;;;;;;;17.63;7.03;;;;;;;;;;5101825;28;20410;-58
2023/09/30 11:03:22;;;;;;;17.08;6.13;;;;;;;;;;5104292;28;20051;-59
2023/09/30 11:05:48;;;;;;;15.13;5.97;;;;;;;;;;5090434;28;20067;-59
2023/09/30 11:08:22;;;;;;;16.77;6.35;;;;;;;;;;5106502;28;20051;-58
2023/09/30 11:10:54;;;;;;;16.38;6.88;;;;;;;;;;5106991;28;20032;-59
2023/09/30 11:13:20;;;;;;;14.88;6.40;;;;;;;;;;5105041;28;20081;-58
2023/09/30 11:15:47;;;;;;;17.95;7.05;;;;;;;;;;5107237;28;20035;-57
2023/09/30 11:18:17;;;;;;;16.90;6.80;;;;;;;;;;5108379;28;20032;-57
2023/09/30 11:20:44;;;;;;;15.07;6.28;;;;;;;;;;5107793;28;20039;-59
2023/09/30 11:23:11;;;;;;;14.52;5.70;;;;;;;;;;5104870;28;20458;-59
2023/09/30 11:25:39;;;;;;;13.90;5.88;;;;;;;;;;5088358;28;20054;-58
2023/09/30 11:28:16;;;;;;;13.98;5.88;;;;;;;;;;5106942;28;20050;-58
2023/09/30 11:30:58;;;;;;;13.77;5.95;;;;;;;;;;5105611;28;20050;-59
2023/09/30 11:33:25;;;;;;;16.10;6.10;;;;;;;;;;5105752;28;20406;-60
2023/09/30 11:36:05;;;;;;;15.75;6.70;;;;;;;;;;5104733;28;20031;-59
2023/09/30 11:38:35;;;;;;;17.85;7.03;;;;;;;;;;5103479;28;20395;-59
2023/09/30 11:41:06;;;;;;;15.02;6.32;;;;;;;;;;5105449;28;20487;-59
2023/09/30 11:43:34;;;;;;;16.65;6.97;;;;;;;;;;5082447;28;20714;-59
2023/09/30 11:46:08;;;;;;;16.65;6.88;;;;;;;;;;5105754;28;20047;-59
2023/09/30 11:48:38;;;;;;;20.48;7.35;;;;;;;;;;5101920;28;20039;-59
2023/09/30 11:51:04;;;;;;;19.95;7.70;;;;;;;;;;5100698;28;20361;-58
2023/09/30 11:53:32;;;;;;;21.30;7.78;;;;;;;;;;5101446;28;20040;-57
2023/09/30 11:55:59;;;;;;;19.92;7.45;;;;;;;;;;5106706;28;20399;-58
2023/09/30 11:58:26;;;;;;;22.00;7.82;;;;;;;;;;5098250;28;20036;-58
2023/09/30 12:00:59;;;;;;;18.45;7.57;;;;;;;;;;5104735;28;20411;-59
2023/09/30 12:03:27;;;;;;;20.05;7.72;;;;;;;;;;5087113;28;20054;-58
2023/09/30 12:05:55;;;;;;;19.27;7.28;;;;;;;;;;5099948;28;20082;-59
2023/09/30 12:08:22;;;;;;;21.75;8.30;;;;;;;;;;5104584;28;20079;-59
2023/09/30 12:10:49;;;;;;;22.52;8.43;;;;;;;;;;5106649;28;20051;-59
2023/09/30 12:13:16;;;;;;;21.80;8.25;;;;;;;;;;5106970;28;20024;-59
2023/09/30 12:15:42;;;;;;;23.48;8.27;;;;;;;;;;5106107;28;20035;-59
2023/09/30 12:18:10;;;;;;;23.23;8.00;;;;;;;;;;5088602;28;20040;-59
2023/09/30 12:20:36;;;;;;;23.60;8.15;;;;;;;;;;5105119;28;20052;-59
2023/09/30 12:23:05;;;;;;;24.95;8.73;;;;;;;;;;5104637;28;20502;-59
2023/09/30 12:25:31;;;;;;;;;;;;;;;;;;5108737;28;20040;-59
2023/09/30 12:27:57;;;;;;;26.13;8.27;;;;;;;;;;5107322;28;19916;-59
2023/09/30 12:30:23;;;;;;;21.75;8.00;;;;;;;;;;5093408;28;20052;-58
2023/09/30 12:32:50;;;;;;;24.60;8.02;;;;;;;;;;5108490;28;20048;-59
2023/09/30 12:35:16;;;;;;;23.13;8.55;;;;;;;;;;5107812;28;20394;-59
2023/09/30 12:37:45;;;;;;;25.98;8.68;;;;;;;;;;5108608;28;20028;-58
2023/09/30 12:40:14;;;;;;;25.42;8.73;;;;;;;;;;5109209;28;20031;-59
2023/09/30 12:42:40;;;;;;;24.15;8.50;;;;;;;;;;5109649;28;20368;-59
2023/09/30 12:45:06;;;;;;;25.20;8.88;;;;;;;;;;5110328;28;20039;-60
2023/09/30 12:47:32;;;;;;;29.52;9.05;;;;;;;;;;5109487;28;20040;-59
2023/09/30 12:49:58;;;;;;;24.27;8.50;;;;;;;;;;5089797;28;20421;-59
2023/09/30 12:52:25;;;;;;;22.92;8.23;;;;;;;;;;5105713;28;20069;-58
2023/09/30 12:54:51;;;;;;;26.73;9.35;;;;;;;;;;5110145;28;20034;-59
2023/09/30 12:57:18;;;;;;;27.08;8.90;;;;;;;;;;5108426;28;20039;-59
2023/09/30 12:59:49;;;;;;;30.98;8.80;;;;;;;;;;5108124;28;20043;-59
2023/09/30 13:02:15;;;;;;;23.35;7.82;;;;;;;;;;5107249;28;20047;-59
2023/09/30 13:04:44;;;;;;;24.65;9.07;;;;;;;;;;5107864;28;20084;-59
2023/09/30 13:07:10;;;;;;;29.70;9.63;;;;;;;;;;5107815;28;20062;-58
2023/09/30 13:09:38;;;;;;;26.85;8.32;;;;;;;;;;5110106;28;20398;-58
2023/09/30 13:12:05;;;;;;;26.63;8.70;;;;;;;;;;5107838;28;20494;-59
2023/09/30 13:14:31;;;;;;;26.88;9.25;;;;;;;;;;5091290;28;20039;-58
2023/09/30 13:16:58;;;;;;;35.45;9.27;;;;;;;;;;5109443;28;20028;-58
2023/09/30 13:19:24;;;;;;;26.77;8.93;;;;;;;;;;5109655;28;20490;-58
2023/09/30 13:21:52;;;;;;;31.25;8.77;;;;;;;;;;5107794;28;20051;-59
2023/09/30 13:24:19;;;;;;;31.20;9.90;;;;;;;;;;5106779;28;20653;-59
2023/09/30 13:26:46;;;;;;;28.33;8.73;;;;;;;;;;5108134;28;20062;-59
2023/09/30 13:29:13;;;;;;;33.80;9.10;;;;;;;;;;5088522;28;20051;-59
2023/09/30 13:31:39;;;;;;;31.27;9.20;;;;;;;;;;5089050;28;20051;-59
2023/09/30 13:34:05;;;;;;;33.38;10.27;;;;;;;;;;5107433;28;20043;-58
2023/09/30 13:36:32;;;;;;;28.63;9.45;;;;;;;;;;5086685;28;20044;-60
2023/09/30 13:38:58;;;;;;;32.28;9.27;;;;;;;;;;5105157;28;20396;-59
2023/09/30 13:41:24;;;;;;;31.17;9.35;;;;;;;;;;5107573;28;20042;-59
2023/09/30 13:43:51;;;;;;;37.92;10.13;;;;;;;;;;5108041;28;20046;-59
2023/09/30 13:46:17;;;;;;;30.75;9.50;;;;;;;;;;5106312;28;20046;-60
2023/09/30 13:48:43;;;;;;;34.95;9.68;;;;;;;;;;5103698;28;20055;-60
2023/09/30 13:51:10;;;;;;;32.10;9.35;;;;;;;;;;5104230;28;20062;-60
2023/09/30 13:53:36;;;;;;;31.55;9.98;;;;;;;;;;5105579;28;20043;-59
2023/09/30 13:56:06;;;;;;;34.65;9.90;;;;;;;;;;5109767;28;20052;-59
2023/09/30 13:58:32;;;;;;;35.10;10.38;;;;;;;;;;5104911;28;20044;-60
2023/09/30 14:00:58;;;;;;;29.70;9.23;;;;;;;;;;5110186;28;20031;-60
2023/09/30 14:03:24;;;;;;;34.88;9.57;;;;;;;;;;5107041;28;20494;-59
2023/09/30 14:05:50;;;;;;;28.27;9.35;;;;;;;;;;5106814;28;20044;-59
2023/09/30 14:08:16;;;;;;;31.67;9.45;;;;;;;;;;5088119;28;20056;-60
2023/09/30 14:10:45;;;;;;;33.35;9.15;;;;;;;;;;5108065;28;20046;-59
2023/09/30 14:13:11;;;;;;;32.88;9.50;;;;;;;;;;5108878;28;20031;-59
2023/09/30 14:15:37;;;;;;;30.02;9.35;;;;;;;;;;5107354;27;20039;-59
2023/09/30 14:18:04;;;;;;;29.83;9.30;;;;;;;;;;5107368;28;20035;-59
2023/09/30 14:20:30;;;;;;;33.97;10.18;;;;;;;;;;5108130;28;20502;-59
2023/09/30 14:22:56;;;;;;;25.83;8.65;;;;;;;;;;5102526;28;20189;-60
2023/09/30 14:25:22;;;;;;;25.63;8.05;;;;;;;;;;5104486;28;20040;-58
2023/09/30 14:27:49;;;;;;;27.23;8.77;;;;;;;;;;5104788;28;20080;-58
2023/09/30 14:30:15;;;;;;;26.23;9.32;;;;;;;;;;5104784;28;20031;-59
2023/09/30 14:32:42;;;;;;;26.75;9.18;;;;;;;;;;5106595;28;20047;-59
2023/09/30 14:35:09;;;;;;;27.58;9.07;;;;;;;;;;5107136;28;20529;-59
2023/09/30 14:37:36;;;;;;;25.02;8.50;;;;;;;;;;5100299;28;20035;-59